createdAt,value
2024-05-09T00:00:44.259Z,15.90
2024-05-09T00:03:12.298Z,15.80
2024-05-09T00:05:44.124Z,16.00
2024-05-09T00:08:12.222Z,15.70
2024-05-09T00:10:40.955Z,16.20
2024-05-09T00:13:09.961Z,16.00
2024-05-09T00:15:38.117Z,15.90
2024-05-09T00:18:07.404Z,15.90
2024-05-09T00:20:39.296Z,15.40
2024-05-09T00:23:10.543Z,15.10
2024-05-09T00:25:38.715Z,15.30
2024-05-09T00:28:06.475Z,15.00
2024-05-09T00:30:36.235Z,14.90
2024-05-09T00:33:06.477Z,15.40
2024-05-09T00:35:35.233Z,15.00
2024-05-09T00:38:02.831Z,15.20
2024-05-09T00:40:39.750Z,15.00
2024-05-09T00:43:10.236Z,15.30
2024-05-09T00:45:37.707Z,14.90
2024-05-09T00:48:08.273Z,15.50
2024-05-09T00:50:38.884Z,15.80
2024-05-09T00:53:07.361Z,14.90
2024-05-09T00:55:38.584Z,15.40
2024-05-09T00:58:05.866Z,15.40
2024-05-09T01:00:38.995Z,15.20
2024-05-09T01:03:10.510Z,15.30
2024-05-09T01:05:40.365Z,15.30
2024-05-09T01:08:08.612Z,15.20
2024-05-09T01:10:42.834Z,15.70
2024-05-09T01:13:12.395Z,15.40
2024-05-09T01:15:39.922Z,15.80
2024-05-09T01:18:12.608Z,16.10
2024-05-09T01:20:43.879Z,15.90
2024-05-09T01:23:14.880Z,16.10
2024-05-09T01:25:44.119Z,15.90
2024-05-09T01:28:11.786Z,16.00
2024-05-09T01:30:39.189Z,15.90
2024-05-09T01:33:09.063Z,15.90
2024-05-09T01:35:38.963Z,15.80
2024-05-09T01:38:07.465Z,15.30
2024-05-09T01:40:38.682Z,15.40
2024-05-09T01:43:09.256Z,15.60
2024-05-09T01:45:38.129Z,15.70
2024-05-09T01:48:05.989Z,15.60
2024-05-09T01:50:38.591Z,15.50
2024-05-09T01:53:13.602Z,15.60
2024-05-09T01:55:41.567Z,15.70
2024-05-09T01:58:09.649Z,15.70
2024-05-09T02:00:41.006Z,14.90
2024-05-09T02:03:14.033Z,14.80
2024-05-09T02:05:47.796Z,14.60
2024-05-09T02:08:17.694Z,14.40
2024-05-09T02:10:46.457Z,14.20
2024-05-09T02:13:14.383Z,14.40
2024-05-09T02:15:41.742Z,13.60
2024-05-09T02:18:09.905Z,14.00
2024-05-09T02:20:40.590Z,14.10
2024-05-09T02:23:09.299Z,14.30
2024-05-09T02:25:36.823Z,13.70
2024-05-09T02:28:04.253Z,13.90
2024-05-09T02:30:39.328Z,13.90
2024-05-09T02:33:11.294Z,13.60
2024-05-09T02:35:40.645Z,13.50
2024-05-09T02:38:10.170Z,13.50
2024-05-09T02:40:39.433Z,13.40
2024-05-09T02:43:09.800Z,13.50
2024-05-09T02:45:41.547Z,13.40
2024-05-09T02:48:13.401Z,13.30
2024-05-09T02:50:41.893Z,13.10
2024-05-09T02:53:12.470Z,13.40
2024-05-09T02:55:40.319Z,13.30
2024-05-09T02:58:08.152Z,13.50
2024-05-09T03:00:39.759Z,13.40
2024-05-09T03:03:11.429Z,13.30
2024-05-09T03:05:41.484Z,13.40
2024-05-09T03:08:09.481Z,13.60
2024-05-09T03:10:38.719Z,13.30
2024-05-09T03:13:08.472Z,13.70
2024-05-09T03:15:36.039Z,13.90
2024-05-09T03:18:04.541Z,14.20
2024-05-09T03:20:34.991Z,13.40
2024-05-09T03:23:04.512Z,13.90
2024-05-09T03:25:32.228Z,13.70
2024-05-09T03:27:59.740Z,14.10
2024-05-09T03:30:38.579Z,13.90
2024-05-09T03:33:15.433Z,13.90
2024-05-09T03:35:47.080Z,14.10
2024-05-09T03:38:14.662Z,13.80
2024-05-09T03:40:46.699Z,13.40
2024-05-09T03:43:14.493Z,13.30
2024-05-09T03:45:43.098Z,13.40
2024-05-09T03:48:10.751Z,13.70
2024-05-09T03:50:38.572Z,13.40
2024-05-09T03:53:07.044Z,13.70
2024-05-09T03:55:34.352Z,13.70
2024-05-09T03:58:01.667Z,13.70
2024-05-09T04:00:36.832Z,14.00
2024-05-09T04:03:09.482Z,13.30
2024-05-09T04:05:40.607Z,14.20
2024-05-09T04:08:09.471Z,14.50
2024-05-09T04:10:36.953Z,14.40
2024-05-09T04:13:04.604Z,14.40
2024-05-09T04:15:32.470Z,14.40
2024-05-09T04:18:01.016Z,14.00
2024-05-09T04:20:37.091Z,13.90
2024-05-09T04:23:08.908Z,13.60
2024-05-09T04:25:36.815Z,13.50
2024-05-09T04:28:04.352Z,13.50
2024-05-09T04:30:37.992Z,13.50
2024-05-09T04:33:10.561Z,13.40
2024-05-09T04:35:41.910Z,13.40
2024-05-09T04:38:09.825Z,13.10
2024-05-09T04:40:38.016Z,13.10
2024-05-09T04:43:07.092Z,13.30
2024-05-09T04:45:35.199Z,12.80
2024-05-09T04:48:03.302Z,12.90
2024-05-09T04:50:36.814Z,13.10
2024-05-09T04:53:10.859Z,13.30
2024-05-09T04:55:39.884Z,13.30
2024-05-09T04:58:11.585Z,13.80
2024-05-09T05:00:40.405Z,13.50
2024-05-09T05:03:12.913Z,13.80
2024-05-09T05:05:43.738Z,14.20
2024-05-09T05:08:13.702Z,14.20
2024-05-09T05:10:41.904Z,14.30
2024-05-09T05:13:16.608Z,13.90
2024-05-09T05:15:44.324Z,13.80
2024-05-09T05:18:11.874Z,13.80
2024-05-09T05:20:39.271Z,13.70
2024-05-09T05:23:12.397Z,14.00
2024-05-09T05:25:40.535Z,14.40
2024-05-09T05:28:07.970Z,14.10
2024-05-09T05:30:37.505Z,14.20
2024-05-09T05:33:05.917Z,14.10
2024-05-09T05:35:34.290Z,13.90
2024-05-09T05:38:02.135Z,14.40
2024-05-09T05:40:36.376Z,14.40
2024-05-09T05:43:10.369Z,15.00
2024-05-09T05:45:38.585Z,14.90
2024-05-09T05:48:07.276Z,15.00
2024-05-09T05:50:37.522Z,15.00
2024-05-09T05:53:07.713Z,15.00
2024-05-09T05:55:39.635Z,15.00
2024-05-09T05:58:14.570Z,15.10
2024-05-09T06:00:42.735Z,15.20
2024-05-09T06:03:13.145Z,15.20
2024-05-09T06:05:43.585Z,15.30
2024-05-09T06:08:11.472Z,14.90
2024-05-09T06:10:40.766Z,15.60
2024-05-09T06:13:13.318Z,15.80
2024-05-09T06:15:41.851Z,16.00
2024-05-09T06:18:11.241Z,16.00
2024-05-09T06:20:41.433Z,15.80
2024-05-09T06:23:10.246Z,16.50
2024-05-09T06:25:38.095Z,16.30
2024-05-09T06:28:05.858Z,15.90
2024-05-09T06:33:04.494Z,16.40
2024-05-09T06:35:32.343Z,16.50
2024-05-09T06:37:59.882Z,16.40
2024-05-09T06:40:36.159Z,16.40
2024-05-09T06:43:17.429Z,16.50
2024-05-09T06:45:47.937Z,16.50
2024-05-09T06:48:17.637Z,16.90
2024-05-09T06:50:45.146Z,17.20
2024-05-09T06:53:15.067Z,16.40
2024-05-09T06:55:42.935Z,16.90
2024-05-09T06:58:10.271Z,16.80
2024-05-09T07:00:40.185Z,16.50
2024-05-09T07:03:11.012Z,17.10
2024-05-09T07:05:39.520Z,17.00
2024-05-09T07:08:07.282Z,16.90
2024-05-09T07:10:36.455Z,16.50
2024-05-09T07:13:09.214Z,16.50
2024-05-09T07:15:36.579Z,17.10
2024-05-09T07:18:11.193Z,16.80
2024-05-09T07:20:39.942Z,17.20
2024-05-09T07:23:11.496Z,17.50
2024-05-09T07:25:39.744Z,17.90
2024-05-09T07:28:14.212Z,17.60
2024-05-09T07:30:42.193Z,16.60
2024-05-09T07:33:09.754Z,16.90
2024-05-09T07:35:37.517Z,17.50
2024-05-09T07:38:05.103Z,17.50
2024-05-09T07:40:36.270Z,18.60
2024-05-09T07:43:14.184Z,18.10
2024-05-09T07:45:50.715Z,18.00
2024-05-09T07:52:37.894Z,17.80
2024-05-09T07:53:47.516Z,18.60
2024-05-09T07:56:19.855Z,19.10
2024-05-09T07:58:50.424Z,19.60
2024-05-09T08:01:17.996Z,18.90
2024-05-09T08:03:45.855Z,17.90
2024-05-09T08:06:13.479Z,18.20
2024-05-09T08:08:40.830Z,17.60
2024-05-09T08:11:08.328Z,18.20
2024-05-09T08:13:35.678Z,18.60
2024-05-09T08:16:03.071Z,18.30
2024-05-09T08:18:30.628Z,17.70
2024-05-09T08:20:58.677Z,17.20
2024-05-09T08:23:26.048Z,17.60
2024-05-09T08:25:53.408Z,17.80
2024-05-09T08:28:21.029Z,18.70
2024-05-09T08:30:48.655Z,18.50
2024-05-09T08:33:16.252Z,17.90
2024-05-09T08:35:43.759Z,18.40
2024-05-09T08:38:11.220Z,18.30
2024-05-09T08:40:39.010Z,18.10
2024-05-09T08:43:11.906Z,17.70
2024-05-09T08:45:44.140Z,18.20
2024-05-09T08:48:14.747Z,17.90
2024-05-09T08:50:43.730Z,18.10
2024-05-09T08:53:12.050Z,18.70
2024-05-09T08:55:42.647Z,18.50
2024-05-09T08:58:19.228Z,18.40
2024-05-09T09:00:47.740Z,18.80
2024-05-09T09:03:19.934Z,18.80
2024-05-09T09:05:57.625Z,19.20
2024-05-09T09:08:26.592Z,18.90
2024-05-09T09:10:55.884Z,18.50
2024-05-09T09:13:23.255Z,19.30
2024-05-09T09:15:52.019Z,18.90
2024-05-09T09:18:19.725Z,18.90
2024-05-09T09:20:47.224Z,19.10
2024-05-09T09:23:14.734Z,19.40
2024-05-09T09:25:42.183Z,18.40
2024-05-09T09:28:09.905Z,18.40
2024-05-09T09:30:43.760Z,18.40
2024-05-09T09:33:11.914Z,18.50
2024-05-09T09:35:42.309Z,18.50
2024-05-09T09:38:11.151Z,19.30
2024-05-09T09:40:46.517Z,20.00
2024-05-09T09:43:20.474Z,20.00
2024-05-09T09:45:51.182Z,19.60
2024-05-09T09:48:20.698Z,19.50
2024-05-09T09:50:48.706Z,19.70
2024-05-09T09:53:17.270Z,20.00
2024-05-09T09:55:44.593Z,19.80
2024-05-09T09:58:14.232Z,19.50
2024-05-09T10:00:42.442Z,19.70
2024-05-09T10:03:10.037Z,19.80
2024-05-09T10:05:39.321Z,19.20
2024-05-09T10:08:09.918Z,19.00
2024-05-09T10:10:37.438Z,19.00
2024-05-09T10:13:05.365Z,19.60
2024-05-09T10:15:52.822Z,19.30
2024-05-09T10:18:28.307Z,19.50
2024-05-09T10:20:59.417Z,19.60
2024-05-09T10:23:32.368Z,19.30
2024-05-09T10:26:01.672Z,19.10
2024-05-09T10:28:33.487Z,19.20
2024-05-09T10:31:12.826Z,19.30
2024-05-09T10:33:51.863Z,19.40
2024-05-09T10:36:24.763Z,19.40
2024-05-09T10:38:55.698Z,19.70
2024-05-09T10:41:23.769Z,19.70
2024-05-09T10:43:51.676Z,19.90
2024-05-09T10:46:19.798Z,19.70
2024-05-09T10:48:48.460Z,20.10
2024-05-09T10:51:17.731Z,20.00
2024-05-09T10:53:46.630Z,20.70
2024-05-09T10:56:14.924Z,20.90
2024-05-09T10:58:42.294Z,21.20
2024-05-09T11:01:10.374Z,20.80
2024-05-09T11:03:39.001Z,20.30
2024-05-09T11:06:07.164Z,20.30
2024-05-09T11:08:34.869Z,20.10
2024-05-09T11:11:04.704Z,20.10
2024-05-09T11:13:33.380Z,20.30
2024-05-09T11:16:01.352Z,20.70
2024-05-09T11:18:36.398Z,20.70
2024-05-09T11:21:12.731Z,21.30
2024-05-09T11:23:40.562Z,21.70
2024-05-09T11:26:07.899Z,21.60
2024-05-09T11:28:35.232Z,21.70
2024-05-09T11:31:10.541Z,22.10
2024-05-09T11:33:44.292Z,22.40
2024-05-09T11:36:11.968Z,21.60
2024-05-09T11:38:39.620Z,21.60
2024-05-09T11:41:07.398Z,21.40
2024-05-09T11:43:34.802Z,21.40
2024-05-09T11:46:02.842Z,20.90
2024-05-09T11:48:30.947Z,21.90
2024-05-09T11:50:58.558Z,22.10
2024-05-09T11:53:25.947Z,22.10
2024-05-09T11:55:53.467Z,21.80
2024-05-09T11:58:22.918Z,21.40
2024-05-09T12:00:50.555Z,21.50
2024-05-09T12:03:18.151Z,21.60
2024-05-09T12:05:45.714Z,21.30
2024-05-09T12:08:14.156Z,21.40
2024-05-09T12:10:41.801Z,21.80
2024-05-09T12:13:09.299Z,21.90
2024-05-09T12:15:38.182Z,21.10
2024-05-09T12:18:07.557Z,21.00
2024-05-09T12:20:38.652Z,21.60
2024-05-09T12:23:09.306Z,22.00
2024-05-09T12:25:38.921Z,22.60
2024-05-09T12:28:07.297Z,22.90
2024-05-09T12:30:39.693Z,23.30
2024-05-09T12:33:13.120Z,23.20
2024-05-09T12:35:44.045Z,22.70
2024-05-09T12:38:13.438Z,21.90
2024-05-09T12:40:40.898Z,21.30
2024-05-09T12:43:09.604Z,21.70
2024-05-09T12:45:38.292Z,21.70
2024-05-09T12:48:08.408Z,21.60
2024-05-09T12:50:39.558Z,22.70
2024-05-09T12:53:06.929Z,23.20
2024-05-09T12:55:41.295Z,24.10
2024-05-09T12:58:17.428Z,23.20
2024-05-09T13:00:45.508Z,23.10
2024-05-09T13:03:13.340Z,22.50
2024-05-09T13:05:41.662Z,21.70
2024-05-09T13:08:09.566Z,21.30
2024-05-09T13:10:37.279Z,21.00
2024-05-09T13:13:04.888Z,20.90
2024-05-09T13:15:34.886Z,22.00
2024-05-09T13:18:03.691Z,23.00
2024-05-09T13:20:34.287Z,23.70
2024-05-09T13:23:04.824Z,24.40
2024-05-09T13:25:34.471Z,24.70
2024-05-09T13:28:02.434Z,24.20
2024-05-09T13:30:38.538Z,23.50
2024-05-09T13:33:10.355Z,22.60
2024-05-09T13:35:38.658Z,23.50
2024-05-09T13:38:06.223Z,24.10
2024-05-09T13:40:35.933Z,24.80
2024-05-09T13:43:04.999Z,24.90
2024-05-09T13:45:33.366Z,25.90
2024-05-09T13:48:02.111Z,24.50
2024-05-09T13:50:34.753Z,25.20
2024-05-09T13:53:06.531Z,24.10
2024-05-09T13:55:37.089Z,22.50
2024-05-09T13:58:04.628Z,22.50
2024-05-09T14:00:42.686Z,22.40
2024-05-09T14:03:15.716Z,22.00
2024-05-09T14:05:44.005Z,22.00
2024-05-09T14:08:11.975Z,22.70
2024-05-09T14:10:44.047Z,22.70
2024-05-09T14:13:12.286Z,23.00
2024-05-09T14:15:39.880Z,23.30
2024-05-09T14:18:11.509Z,23.40
2024-05-09T14:20:41.475Z,23.00
2024-05-09T14:23:08.893Z,21.90
2024-05-09T14:25:40.371Z,22.60
2024-05-09T14:28:10.199Z,22.50
2024-05-09T14:30:38.842Z,22.80
2024-05-09T14:33:08.296Z,22.90
2024-05-09T14:35:38.269Z,23.10
2024-05-09T14:38:07.567Z,23.60
2024-05-09T14:40:41.327Z,24.80
2024-05-09T14:43:11.755Z,24.50
2024-05-09T14:45:39.542Z,24.50
2024-05-09T14:48:08.162Z,24.40
2024-05-09T14:50:38.973Z,24.20
2024-05-09T14:53:09.508Z,24.60
2024-05-09T14:55:38.771Z,24.40
2024-05-09T14:58:07.583Z,23.90
2024-05-09T15:00:42.481Z,23.10
2024-05-09T15:03:13.236Z,23.80
2024-05-09T15:05:40.961Z,24.20
2024-05-09T15:08:08.845Z,24.70
2024-05-09T15:10:37.259Z,25.30
2024-05-09T15:13:07.263Z,25.20
2024-05-09T15:15:36.579Z,26.00
2024-05-09T15:18:07.623Z,25.00
2024-05-09T15:20:37.242Z,25.80
2024-05-09T15:23:07.062Z,25.50
2024-05-09T15:25:36.044Z,25.10
2024-05-09T15:28:05.016Z,24.10
2024-05-09T15:30:34.076Z,23.80
2024-05-09T15:33:06.355Z,24.20
2024-05-09T15:35:34.930Z,24.80
2024-05-09T15:38:05.382Z,24.60
2024-05-09T15:40:39.473Z,24.20
2024-05-09T15:43:09.905Z,23.60
2024-05-09T15:45:39.837Z,23.10
2024-05-09T15:48:09.755Z,23.40
2024-05-09T15:50:40.840Z,23.30
2024-05-09T15:53:11.387Z,23.30
2024-05-09T15:55:39.545Z,23.60
2024-05-09T15:58:07.570Z,23.80
2024-05-09T16:00:39.552Z,23.50
2024-05-09T16:03:10.618Z,23.60
2024-05-09T16:05:38.902Z,23.70
2024-05-09T16:08:07.421Z,23.30
2024-05-09T16:10:36.072Z,23.00
2024-05-09T16:13:04.131Z,23.50
2024-05-09T16:15:32.133Z,23.30
2024-05-09T16:18:00.525Z,23.20
2024-05-09T16:20:37.266Z,22.90
2024-05-09T16:23:09.025Z,22.60
2024-05-09T16:25:36.958Z,23.40
2024-05-09T16:28:08.664Z,23.60
2024-05-09T16:30:38.502Z,23.10
2024-05-09T16:33:06.455Z,23.40
2024-05-09T16:35:34.980Z,23.60
2024-05-09T16:38:03.328Z,22.80
2024-05-09T16:40:37.789Z,23.00
2024-05-09T16:43:11.311Z,22.70
2024-05-09T16:45:40.957Z,22.30
2024-05-09T16:48:08.892Z,21.80
2024-05-09T16:50:36.839Z,22.10
2024-05-09T16:53:05.906Z,21.70
2024-05-09T16:55:34.498Z,22.10
2024-05-09T16:58:02.587Z,21.90
2024-05-09T17:00:38.787Z,21.80
2024-05-09T17:03:12.460Z,22.00
2024-05-09T17:05:41.010Z,21.50
2024-05-09T17:08:08.894Z,21.70
2024-05-09T17:10:36.709Z,21.60
2024-05-09T17:13:06.471Z,21.10
2024-05-09T17:15:36.451Z,21.30
2024-05-09T17:18:05.649Z,21.10
2024-05-09T17:20:36.160Z,21.00
2024-05-09T17:23:12.367Z,21.20
2024-05-09T17:25:40.523Z,21.50
2024-05-09T17:28:08.746Z,21.30
2024-05-09T17:30:38.608Z,21.60
2024-05-09T17:33:09.140Z,21.70
2024-05-09T17:35:37.512Z,21.70
2024-05-09T17:38:08.129Z,21.20
2024-05-09T17:40:37.595Z,21.20
2024-05-09T17:43:08.625Z,21.30
2024-05-09T17:45:38.847Z,21.10
2024-05-09T17:48:07.497Z,21.30
2024-05-09T17:50:37.208Z,21.20
2024-05-09T17:53:06.525Z,21.10
2024-05-09T17:55:34.308Z,20.90
2024-05-09T17:58:02.123Z,21.20
2024-05-09T18:00:37.543Z,21.10
2024-05-09T18:03:08.950Z,20.80
2024-05-09T18:05:37.394Z,20.90
2024-05-09T18:08:06.450Z,20.40
2024-05-09T18:10:37.929Z,20.50
2024-05-09T18:13:08.248Z,20.30
2024-05-09T18:15:36.219Z,20.50
2024-05-09T18:18:04.509Z,20.90
2024-05-09T18:20:40.524Z,20.70
2024-05-09T18:23:17.022Z,20.20
2024-05-09T18:25:45.789Z,20.70
2024-05-09T18:28:13.345Z,20.60
2024-05-09T18:30:41.234Z,20.60
2024-05-09T18:33:11.172Z,20.70
2024-05-09T18:35:39.165Z,20.00
2024-05-09T18:38:06.483Z,20.10
2024-05-09T18:40:36.793Z,19.30
2024-05-09T18:43:07.846Z,19.40
2024-05-09T18:45:38.012Z,19.90
2024-05-09T18:48:07.534Z,19.80
2024-05-09T18:50:39.069Z,19.60
2024-05-09T18:53:08.880Z,19.70
2024-05-09T18:55:36.433Z,20.00
2024-05-09T18:58:07.047Z,19.70
2024-05-09T19:00:37.880Z,19.00
2024-05-09T19:03:12.823Z,19.70
2024-05-09T19:05:43.550Z,19.60
2024-05-09T19:08:12.187Z,19.70
2024-05-09T19:10:40.360Z,19.70
2024-05-09T19:13:11.952Z,19.30
2024-05-09T19:15:42.213Z,19.40
2024-05-09T19:18:11.027Z,19.40
2024-05-09T19:20:39.034Z,19.10
2024-05-09T19:23:07.402Z,18.90
2024-05-09T19:25:35.700Z,19.10
2024-05-09T19:28:04.253Z,19.10
2024-05-09T19:30:38.776Z,19.10
2024-05-09T19:33:11.002Z,19.00
2024-05-09T19:35:39.589Z,19.20
2024-05-09T19:38:07.184Z,19.00
2024-05-09T19:40:35.529Z,18.90
2024-05-09T19:43:04.767Z,19.00
2024-05-09T19:45:33.888Z,19.20
2024-05-09T19:48:02.556Z,19.20
2024-05-09T19:50:37.744Z,18.80
2024-05-09T19:53:11.443Z,18.80
2024-05-09T19:55:39.533Z,18.60
2024-05-09T19:58:08.378Z,18.80
2024-05-09T20:00:39.417Z,18.80
2024-05-09T20:03:09.850Z,18.90
2024-05-09T20:05:38.495Z,18.70
2024-05-09T20:08:06.970Z,18.40
2024-05-09T20:10:35.974Z,18.40
2024-05-09T20:13:06.406Z,18.40
2024-05-09T20:15:36.458Z,18.20
2024-05-09T20:18:04.792Z,18.20
2024-05-09T20:20:38.118Z,18.30
2024-05-09T20:23:09.879Z,18.30
2024-05-09T20:25:37.438Z,18.30
2024-05-09T20:28:06.122Z,18.20
2024-05-09T20:30:34.884Z,18.30
2024-05-09T20:33:04.817Z,18.20
2024-05-09T20:35:33.539Z,18.20
2024-05-09T20:38:01.773Z,18.00
2024-05-09T20:40:34.197Z,18.30
2024-05-09T20:43:05.691Z,18.30
2024-05-09T20:45:33.959Z,18.40
2024-05-09T20:48:02.406Z,18.20
2024-05-09T20:50:37.314Z,18.50
2024-05-09T20:53:13.005Z,18.20
2024-05-09T20:55:41.640Z,18.20
2024-05-09T20:58:10.093Z,18.30
2024-05-09T21:00:41.390Z,17.80
2024-05-09T21:03:12.691Z,18.10
2024-05-09T21:05:41.006Z,18.10
2024-05-09T21:08:08.943Z,18.00
2024-05-09T21:10:37.299Z,18.00
2024-05-09T21:13:06.225Z,18.20
2024-05-09T21:15:34.480Z,18.30
2024-05-09T21:18:02.049Z,18.40
2024-05-09T21:20:32.660Z,18.20
2024-05-09T21:23:01.476Z,18.20
2024-05-09T21:25:29.373Z,18.70
2024-05-09T21:27:56.769Z,18.30
2024-05-09T21:32:54.582Z,18.50
2024-05-09T21:35:21.975Z,18.30
2024-05-09T21:37:49.335Z,18.40
2024-05-09T21:40:26.666Z,18.20
2024-05-09T21:43:00.488Z,18.10
2024-05-09T21:45:28.051Z,18.20
2024-05-09T21:47:55.800Z,18.30
2024-05-09T21:50:28.672Z,18.20
2024-05-09T21:53:03.893Z,18.20
2024-05-09T21:55:31.201Z,18.00
2024-05-09T21:57:58.573Z,18.40
2024-05-09T22:00:34.242Z,18.20
2024-05-09T22:03:05.473Z,18.40
2024-05-09T22:05:33.158Z,18.20
2024-05-09T22:08:00.804Z,18.10
2024-05-09T22:10:33.838Z,18.00
2024-05-09T22:13:04.692Z,18.00
2024-05-09T22:15:37.168Z,18.00
2024-05-09T22:18:10.135Z,17.90
2024-05-09T22:20:44.674Z,17.60
2024-05-09T22:23:13.414Z,17.20
2024-05-09T22:25:40.813Z,17.10
2024-05-09T22:28:08.291Z,16.60
2024-05-09T22:30:39.073Z,16.60
2024-05-09T22:33:09.347Z,16.30
2024-05-09T22:35:38.339Z,16.20
2024-05-09T22:38:05.833Z,16.20
2024-05-09T22:40:42.753Z,15.90
2024-05-09T22:43:19.375Z,15.40
2024-05-09T22:45:47.721Z,15.70
2024-05-09T22:48:15.344Z,15.70
2024-05-09T22:50:42.937Z,15.80
2024-05-09T22:53:10.278Z,15.60
2024-05-09T22:55:37.606Z,15.70
2024-05-09T22:58:05.055Z,15.60
2024-05-09T23:00:33.311Z,15.60
2024-05-09T23:03:01.717Z,15.60
2024-05-09T23:05:30.321Z,15.60
2024-05-09T23:07:57.721Z,15.60
2024-05-09T23:10:32.188Z,15.40
2024-05-09T23:13:04.190Z,15.40
2024-05-09T23:15:31.835Z,15.60
2024-05-09T23:17:59.388Z,15.20
2024-05-09T23:20:35.826Z,15.00
2024-05-09T23:23:10.518Z,15.00
2024-05-09T23:25:40.865Z,15.00
2024-05-09T23:28:08.532Z,15.00
2024-05-09T23:30:39.341Z,14.90
2024-05-09T23:33:10.085Z,15.00
2024-05-09T23:35:38.117Z,15.20
2024-05-09T23:38:05.603Z,14.80
2024-05-09T23:40:39.194Z,14.90
2024-05-09T23:43:12.699Z,14.70
2024-05-09T23:45:40.935Z,14.70
2024-05-09T23:48:08.960Z,15.00
2024-05-09T23:50:38.517Z,15.00
2024-05-09T23:53:09.194Z,15.00
2024-05-09T23:55:37.723Z,14.90
2024-05-09T23:58:05.768Z,14.90
